sensor_id;sensor_type;location;lat;lon;timestamp;P1;durP1;ratioP1;P2;durP2;ratioP2
57395;SDS011;43222;52.912;6.940;2024-02-21T00:00:55;31.55;;;17.73;;
57395;SDS011;43222;52.912;6.940;2024-02-21T00:03:22;33.88;;;17.33;;
57395;SDS011;43222;52.912;6.940;2024-02-21T00:05:48;34.15;;;16.92;;
57395;SDS011;43222;52.912;6.940;2024-02-21T00:08:14;36.97;;;18.63;;
57395;SDS011;43222;52.912;6.940;2024-02-21T00:10:40;35.88;;;17.13;;
57395;SDS011;43222;52.912;6.940;2024-02-21T00:13:06;35.63;;;16.50;;
57395;SDS011;43222;52.912;6.940;2024-02-21T00:15:32;35.67;;;16.42;;
57395;SDS011;43222;52.912;6.940;2024-02-21T00:17:58;37.28;;;16.35;;
57395;SDS011;43222;52.912;6.940;2024-02-21T00:20:24;33.58;;;15.30;;
57395;SDS011;43222;52.912;6.940;2024-02-21T00:22:51;34.08;;;15.70;;
57395;SDS011;43222;52.912;6.940;2024-02-21T00:25:17;29.33;;;15.50;;
57395;SDS011;43222;52.912;6.940;2024-02-21T00:27:43;29.70;;;15.25;;
57395;SDS011;43222;52.912;6.940;2024-02-21T00:30:10;30.63;;;14.88;;
57395;SDS011;43222;52.912;6.940;2024-02-21T00:32:36;35.00;;;15.52;;
57395;SDS011;43222;52.912;6.940;2024-02-21T00:35:02;29.13;;;15.13;;
57395;SDS011;43222;52.912;6.940;2024-02-21T00:37:28;31.88;;;15.98;;
57395;SDS011;43222;52.912;6.940;2024-02-21T00:39:54;33.83;;;15.85;;
57395;SDS011;43222;52.912;6.940;2024-02-21T00:42:20;31.95;;;14.68;;
57395;SDS011;43222;52.912;6.940;2024-02-21T00:44:46;29.35;;;13.63;;
57395;SDS011;43222;52.912;6.940;2024-02-21T00:47:13;25.40;;;13.15;;
57395;SDS011;43222;52.912;6.940;2024-02-21T00:49:39;26.40;;;13.20;;
57395;SDS011;43222;52.912;6.940;2024-02-21T00:52:05;23.38;;;12.25;;
57395;SDS011;43222;52.912;6.940;2024-02-21T00:54:31;25.67;;;12.23;;
57395;SDS011;43222;52.912;6.940;2024-02-21T00:56:57;28.17;;;12.68;;
57395;SDS011;43222;52.912;6.940;2024-02-21T00:59:23;26.52;;;11.50;;
57395;SDS011;43222;52.912;6.940;2024-02-21T01:01:50;21.98;;;11.13;;
57395;SDS011;43222;52.912;6.940;2024-02-21T01:04:16;26.83;;;10.63;;
57395;SDS011;43222;52.912;6.940;2024-02-21T01:06:42;24.52;;;10.23;;
57395;SDS011;43222;52.912;6.940;2024-02-21T01:09:09;24.33;;;10.48;;
57395;SDS011;43222;52.912;6.940;2024-02-21T01:11:35;20.98;;;8.52;;
57395;SDS011;43222;52.912;6.940;2024-02-21T01:14:01;20.02;;;9.35;;
57395;SDS011;43222;52.912;6.940;2024-02-21T01:16:27;23.10;;;9.30;;
57395;SDS011;43222;52.912;6.940;2024-02-21T01:18:53;21.55;;;8.98;;
57395;SDS011;43222;52.912;6.940;2024-02-21T01:21:20;20.13;;;8.88;;
57395;SDS011;43222;52.912;6.940;2024-02-21T01:23:46;21.23;;;8.77;;
57395;SDS011;43222;52.912;6.940;2024-02-21T01:26:12;20.73;;;8.65;;
57395;SDS011;43222;52.912;6.940;2024-02-21T01:28:41;24.35;;;8.65;;
57395;SDS011;43222;52.912;6.940;2024-02-21T01:31:07;22.88;;;8.30;;
57395;SDS011;43222;52.912;6.940;2024-02-21T01:33:33;23.33;;;8.70;;
57395;SDS011;43222;52.912;6.940;2024-02-21T01:36:03;17.17;;;8.18;;
57395;SDS011;43222;52.912;6.940;2024-02-21T01:38:31;23.77;;;8.20;;
57395;SDS011;43222;52.912;6.940;2024-02-21T01:40:58;24.88;;;7.72;;
57395;SDS011;43222;52.912;6.940;2024-02-21T01:43:24;21.48;;;7.60;;
57395;SDS011;43222;52.912;6.940;2024-02-21T01:45:50;23.65;;;8.00;;
57395;SDS011;43222;52.912;6.940;2024-02-21T01:48:18;20.88;;;7.75;;
57395;SDS011;43222;52.912;6.940;2024-02-21T01:50:47;22.77;;;7.60;;
57395;SDS011;43222;52.912;6.940;2024-02-21T01:53:13;15.40;;;7.10;;
57395;SDS011;43222;52.912;6.940;2024-02-21T01:55:46;21.30;;;7.68;;
57395;SDS011;43222;52.912;6.940;2024-02-21T01:58:15;21.55;;;7.18;;
57395;SDS011;43222;52.912;6.940;2024-02-21T02:00:42;19.05;;;7.15;;
57395;SDS011;43222;52.912;6.940;2024-02-21T02:03:11;20.63;;;7.25;;
57395;SDS011;43222;52.912;6.940;2024-02-21T02:05:42;20.05;;;7.03;;
57395;SDS011;43222;52.912;6.940;2024-02-21T02:08:09;24.35;;;6.97;;
57395;SDS011;43222;52.912;6.940;2024-02-21T02:10:35;22.40;;;6.63;;
57395;SDS011;43222;52.912;6.940;2024-02-21T02:13:01;24.08;;;7.93;;
57395;SDS011;43222;52.912;6.940;2024-02-21T02:15:27;21.50;;;6.85;;
57395;SDS011;43222;52.912;6.940;2024-02-21T02:18:03;23.55;;;7.78;;
57395;SDS011;43222;52.912;6.940;2024-02-21T02:20:29;28.20;;;8.52;;
57395;SDS011;43222;52.912;6.940;2024-02-21T02:22:55;21.13;;;7.88;;
57395;SDS011;43222;52.912;6.940;2024-02-21T02:25:21;23.75;;;8.10;;
57395;SDS011;43222;52.912;6.940;2024-02-21T02:27:47;24.48;;;8.45;;
57395;SDS011;43222;52.912;6.940;2024-02-21T02:30:13;26.55;;;8.85;;
57395;SDS011;43222;52.912;6.940;2024-02-21T02:32:43;27.20;;;8.77;;
57395;SDS011;43222;52.912;6.940;2024-02-21T02:35:09;32.10;;;9.45;;
57395;SDS011;43222;52.912;6.940;2024-02-21T02:37:35;27.05;;;9.45;;
57395;SDS011;43222;52.912;6.940;2024-02-21T02:40:03;29.73;;;10.80;;
57395;SDS011;43222;52.912;6.940;2024-02-21T02:42:29;29.33;;;10.52;;
57395;SDS011;43222;52.912;6.940;2024-02-21T02:44:55;27.45;;;10.02;;
57395;SDS011;43222;52.912;6.940;2024-02-21T02:47:22;23.67;;;10.55;;
57395;SDS011;43222;52.912;6.940;2024-02-21T02:49:48;29.63;;;11.13;;
57395;SDS011;43222;52.912;6.940;2024-02-21T02:52:16;25.90;;;10.55;;
57395;SDS011;43222;52.912;6.940;2024-02-21T02:54:43;25.70;;;10.50;;
57395;SDS011;43222;52.912;6.940;2024-02-21T02:57:09;26.25;;;10.25;;
57395;SDS011;43222;52.912;6.940;2024-02-21T02:59:35;23.48;;;10.60;;
57395;SDS011;43222;52.912;6.940;2024-02-21T03:02:01;26.20;;;10.00;;
57395;SDS011;43222;52.912;6.940;2024-02-21T03:04:27;25.55;;;10.23;;
57395;SDS011;43222;52.912;6.940;2024-02-21T03:06:53;19.55;;;9.90;;
57395;SDS011;43222;52.912;6.940;2024-02-21T03:09:19;24.30;;;10.10;;
57395;SDS011;43222;52.912;6.940;2024-02-21T03:11:45;27.42;;;11.30;;
57395;SDS011;43222;52.912;6.940;2024-02-21T03:14:11;26.48;;;10.77;;
57395;SDS011;43222;52.912;6.940;2024-02-21T03:16:37;22.85;;;10.25;;
57395;SDS011;43222;52.912;6.940;2024-02-21T03:19:03;21.98;;;10.23;;
57395;SDS011;43222;52.912;6.940;2024-02-21T03:21:29;29.33;;;11.10;;
57395;SDS011;43222;52.912;6.940;2024-02-21T03:23:55;24.20;;;10.25;;
57395;SDS011;43222;52.912;6.940;2024-02-21T03:26:21;25.48;;;10.50;;
57395;SDS011;43222;52.912;6.940;2024-02-21T03:28:48;28.17;;;11.23;;
57395;SDS011;43222;52.912;6.940;2024-02-21T03:31:14;23.83;;;10.48;;
57395;SDS011;43222;52.912;6.940;2024-02-21T03:33:42;23.30;;;10.40;;
57395;SDS011;43222;52.912;6.940;2024-02-21T03:36:14;29.00;;;10.07;;
57395;SDS011;43222;52.912;6.940;2024-02-21T03:38:45;25.50;;;10.40;;
57395;SDS011;43222;52.912;6.940;2024-02-21T03:41:12;22.63;;;10.27;;
57395;SDS011;43222;52.912;6.940;2024-02-21T03:43:39;23.20;;;9.45;;
57395;SDS011;43222;52.912;6.940;2024-02-21T03:46:05;22.13;;;10.43;;
57395;SDS011;43222;52.912;6.940;2024-02-21T03:48:31;22.77;;;10.15;;
57395;SDS011;43222;52.912;6.940;2024-02-21T03:50:58;25.80;;;9.35;;
57395;SDS011;43222;52.912;6.940;2024-02-21T03:53:24;20.13;;;9.85;;
57395;SDS011;43222;52.912;6.940;2024-02-21T03:55:50;21.92;;;9.25;;
57395;SDS011;43222;52.912;6.940;2024-02-21T03:58:16;19.05;;;9.32;;
57395;SDS011;43222;52.912;6.940;2024-02-21T04:00:42;20.73;;;8.77;;
57395;SDS011;43222;52.912;6.940;2024-02-21T04:03:11;19.50;;;9.80;;
57395;SDS011;43222;52.912;6.940;2024-02-21T04:05:37;20.00;;;8.48;;
57395;SDS011;43222;52.912;6.940;2024-02-21T04:08:06;20.50;;;8.60;;
57395;SDS011;43222;52.912;6.940;2024-02-21T04:10:33;18.13;;;8.20;;
57395;SDS011;43222;52.912;6.940;2024-02-21T04:12:59;17.88;;;8.40;;
57395;SDS011;43222;52.912;6.940;2024-02-21T04:15:25;20.17;;;8.35;;
57395;SDS011;43222;52.912;6.940;2024-02-21T04:17:51;20.48;;;9.23;;
57395;SDS011;43222;52.912;6.940;2024-02-21T04:20:18;21.50;;;8.70;;
57395;SDS011;43222;52.912;6.940;2024-02-21T04:22:44;20.73;;;9.32;;
57395;SDS011;43222;52.912;6.940;2024-02-21T04:25:10;20.17;;;9.15;;
57395;SDS011;43222;52.912;6.940;2024-02-21T04:27:37;19.98;;;8.70;;
57395;SDS011;43222;52.912;6.940;2024-02-21T04:30:03;22.25;;;9.50;;
57395;SDS011;43222;52.912;6.940;2024-02-21T04:32:30;20.73;;;9.57;;
57395;SDS011;43222;52.912;6.940;2024-02-21T04:34:56;22.23;;;10.75;;
57395;SDS011;43222;52.912;6.940;2024-02-21T04:37:22;21.10;;;9.90;;
57395;SDS011;43222;52.912;6.940;2024-02-21T04:39:48;25.23;;;10.95;;
57395;SDS011;43222;52.912;6.940;2024-02-21T04:42:14;21.27;;;9.88;;
57395;SDS011;43222;52.912;6.940;2024-02-21T04:44:41;21.35;;;10.43;;
57395;SDS011;43222;52.912;6.940;2024-02-21T04:47:07;20.40;;;10.25;;
57395;SDS011;43222;52.912;6.940;2024-02-21T04:49:33;23.45;;;9.88;;
57395;SDS011;43222;52.912;6.940;2024-02-21T04:51:59;23.33;;;10.10;;
57395;SDS011;43222;52.912;6.940;2024-02-21T04:54:25;28.65;;;10.43;;
57395;SDS011;43222;52.912;6.940;2024-02-21T04:56:51;28.90;;;11.40;;
57395;SDS011;43222;52.912;6.940;2024-02-21T04:59:18;25.77;;;10.80;;
57395;SDS011;43222;52.912;6.940;2024-02-21T05:01:44;25.20;;;10.80;;
57395;SDS011;43222;52.912;6.940;2024-02-21T05:04:10;32.88;;;11.75;;
57395;SDS011;43222;52.912;6.940;2024-02-21T05:06:37;34.75;;;12.30;;
57395;SDS011;43222;52.912;6.940;2024-02-21T05:09:04;27.25;;;12.07;;
57395;SDS011;43222;52.912;6.940;2024-02-21T05:11:30;33.05;;;12.48;;
57395;SDS011;43222;52.912;6.940;2024-02-21T05:13:56;34.45;;;12.23;;
57395;SDS011;43222;52.912;6.940;2024-02-21T05:16:22;40.50;;;12.77;;
57395;SDS011;43222;52.912;6.940;2024-02-21T05:18:48;35.67;;;13.85;;
57395;SDS011;43222;52.912;6.940;2024-02-21T05:21:14;37.67;;;13.00;;
57395;SDS011;43222;52.912;6.940;2024-02-21T05:23:40;37.42;;;13.18;;
57395;SDS011;43222;52.912;6.940;2024-02-21T05:26:09;36.90;;;12.85;;
57395;SDS011;43222;52.912;6.940;2024-02-21T05:28:35;42.40;;;13.13;;
57395;SDS011;43222;52.912;6.940;2024-02-21T05:31:02;29.75;;;13.48;;
57395;SDS011;43222;52.912;6.940;2024-02-21T05:33:28;42.75;;;13.73;;
57395;SDS011;43222;52.912;6.940;2024-02-21T05:35:54;43.53;;;14.13;;
57395;SDS011;43222;52.912;6.940;2024-02-21T05:38:20;41.00;;;14.35;;
57395;SDS011;43222;52.912;6.940;2024-02-21T05:40:46;47.85;;;14.60;;
57395;SDS011;43222;52.912;6.940;2024-02-21T05:43:13;41.25;;;15.30;;
57395;SDS011;43222;52.912;6.940;2024-02-21T05:45:39;41.03;;;14.88;;
57395;SDS011;43222;52.912;6.940;2024-02-21T05:48:05;46.38;;;14.85;;
57395;SDS011;43222;52.912;6.940;2024-02-21T05:50:31;44.67;;;15.55;;
57395;SDS011;43222;52.912;6.940;2024-02-21T05:52:57;43.25;;;14.15;;
57395;SDS011;43222;52.912;6.940;2024-02-21T05:55:23;40.85;;;14.57;;
57395;SDS011;43222;52.912;6.940;2024-02-21T05:57:53;50.97;;;14.82;;
57395;SDS011;43222;52.912;6.940;2024-02-21T06:00:19;46.10;;;14.55;;
57395;SDS011;43222;52.912;6.940;2024-02-21T06:02:46;40.65;;;14.93;;
57395;SDS011;43222;52.912;6.940;2024-02-21T06:05:12;36.97;;;13.85;;
57395;SDS011;43222;52.912;6.940;2024-02-21T06:07:38;42.33;;;13.88;;
57395;SDS011;43222;52.912;6.940;2024-02-21T06:10:05;41.13;;;13.73;;
57395;SDS011;43222;52.912;6.940;2024-02-21T06:12:31;47.45;;;14.38;;
57395;SDS011;43222;52.912;6.940;2024-02-21T06:14:57;38.55;;;14.15;;
57395;SDS011;43222;52.912;6.940;2024-02-21T06:17:23;42.08;;;13.93;;
57395;SDS011;43222;52.912;6.940;2024-02-21T06:19:49;51.38;;;14.35;;
57395;SDS011;43222;52.912;6.940;2024-02-21T06:22:15;41.78;;;13.20;;
57395;SDS011;43222;52.912;6.940;2024-02-21T06:24:41;43.65;;;12.90;;
57395;SDS011;43222;52.912;6.940;2024-02-21T06:27:07;44.05;;;13.50;;
57395;SDS011;43222;52.912;6.940;2024-02-21T06:29:33;38.33;;;11.70;;
57395;SDS011;43222;52.912;6.940;2024-02-21T06:32:00;39.78;;;12.38;;
57395;SDS011;43222;52.912;6.940;2024-02-21T06:34:26;45.08;;;12.90;;
57395;SDS011;43222;52.912;6.940;2024-02-21T06:36:52;35.47;;;12.48;;
57395;SDS011;43222;52.912;6.940;2024-02-21T06:39:18;31.70;;;11.30;;
57395;SDS011;43222;52.912;6.940;2024-02-21T06:41:44;37.15;;;12.23;;
57395;SDS011;43222;52.912;6.940;2024-02-21T06:44:11;40.33;;;11.82;;
57395;SDS011;43222;52.912;6.940;2024-02-21T06:46:37;30.67;;;11.63;;
57395;SDS011;43222;52.912;6.940;2024-02-21T06:49:03;31.52;;;12.07;;
57395;SDS011;43222;52.912;6.940;2024-02-21T06:51:30;34.50;;;11.90;;
57395;SDS011;43222;52.912;6.940;2024-02-21T06:53:56;37.92;;;12.43;;
57395;SDS011;43222;52.912;6.940;2024-02-21T06:56:23;29.55;;;12.25;;
57395;SDS011;43222;52.912;6.940;2024-02-21T06:58:56;36.03;;;12.07;;
57395;SDS011;43222;52.912;6.940;2024-02-21T07:01:23;35.20;;;13.70;;
57395;SDS011;43222;52.912;6.940;2024-02-21T07:03:49;37.45;;;14.25;;
57395;SDS011;43222;52.912;6.940;2024-02-21T07:06:15;32.95;;;13.68;;
57395;SDS011;43222;52.912;6.940;2024-02-21T07:08:41;28.95;;;14.20;;
57395;SDS011;43222;52.912;6.940;2024-02-21T07:11:07;33.72;;;15.15;;
57395;SDS011;43222;52.912;6.940;2024-02-21T07:13:33;34.35;;;15.13;;
57395;SDS011;43222;52.912;6.940;2024-02-21T07:15:59;31.00;;;14.38;;
57395;SDS011;43222;52.912;6.940;2024-02-21T07:18:25;33.38;;;15.77;;
57395;SDS011;43222;52.912;6.940;2024-02-21T07:20:52;40.88;;;17.27;;
57395;SDS011;43222;52.912;6.940;2024-02-21T07:23:18;43.53;;;16.63;;
57395;SDS011;43222;52.912;6.940;2024-02-21T07:25:44;36.63;;;17.20;;
57395;SDS011;43222;52.912;6.940;2024-02-21T07:28:10;33.00;;;17.65;;
57395;SDS011;43222;52.912;6.940;2024-02-21T07:30:36;34.88;;;16.35;;
57395;SDS011;43222;52.912;6.940;2024-02-21T07:33:02;33.83;;;17.13;;
57395;SDS011;43222;52.912;6.940;2024-02-21T07:35:29;42.70;;;18.33;;
57395;SDS011;43222;52.912;6.940;2024-02-21T07:37:55;35.53;;;18.15;;
57395;SDS011;43222;52.912;6.940;2024-02-21T07:40:23;33.58;;;16.73;;
57395;SDS011;43222;52.912;6.940;2024-02-21T07:42:50;30.88;;;17.33;;
57395;SDS011;43222;52.912;6.940;2024-02-21T07:45:16;33.42;;;17.52;;
57395;SDS011;43222;52.912;6.940;2024-02-21T07:47:43;34.60;;;18.40;;
57395;SDS011;43222;52.912;6.940;2024-02-21T07:50:09;36.75;;;18.35;;
57395;SDS011;43222;52.912;6.940;2024-02-21T07:52:35;39.65;;;18.55;;
57395;SDS011;43222;52.912;6.940;2024-02-21T07:55:01;37.88;;;18.85;;
57395;SDS011;43222;52.912;6.940;2024-02-21T07:57:28;33.20;;;18.08;;
57395;SDS011;43222;52.912;6.940;2024-02-21T07:59:54;35.30;;;18.58;;
57395;SDS011;43222;52.912;6.940;2024-02-21T08:02:20;32.78;;;18.42;;
57395;SDS011;43222;52.912;6.940;2024-02-21T08:04:46;37.90;;;18.70;;
57395;SDS011;43222;52.912;6.940;2024-02-21T08:07:12;40.85;;;18.20;;
57395;SDS011;43222;52.912;6.940;2024-02-21T08:09:39;32.90;;;18.55;;
57395;SDS011;43222;52.912;6.940;2024-02-21T08:12:05;33.85;;;18.50;;
57395;SDS011;43222;52.912;6.940;2024-02-21T08:14:31;33.65;;;17.52;;
57395;SDS011;43222;52.912;6.940;2024-02-21T08:16:57;37.97;;;18.25;;
57395;SDS011;43222;52.912;6.940;2024-02-21T08:19:24;35.45;;;19.70;;
57395;SDS011;43222;52.912;6.940;2024-02-21T08:21:50;36.88;;;20.33;;
57395;SDS011;43222;52.912;6.940;2024-02-21T08:24:16;37.72;;;21.48;;
57395;SDS011;43222;52.912;6.940;2024-02-21T08:26:46;35.25;;;20.85;;
57395;SDS011;43222;52.912;6.940;2024-02-21T08:29:12;34.97;;;20.10;;
57395;SDS011;43222;52.912;6.940;2024-02-21T08:31:38;32.97;;;21.55;;
57395;SDS011;43222;52.912;6.940;2024-02-21T08:34:04;34.30;;;21.77;;
57395;SDS011;43222;52.912;6.940;2024-02-21T08:36:30;35.67;;;21.30;;
57395;SDS011;43222;52.912;6.940;2024-02-21T08:38:57;30.00;;;21.17;;
57395;SDS011;43222;52.912;6.940;2024-02-21T08:41:23;34.15;;;21.80;;
57395;SDS011;43222;52.912;6.940;2024-02-21T08:43:53;35.08;;;22.38;;
57395;SDS011;43222;52.912;6.940;2024-02-21T08:46:21;37.42;;;23.67;;
57395;SDS011;43222;52.912;6.940;2024-02-21T08:48:49;32.85;;;22.20;;
57395;SDS011;43222;52.912;6.940;2024-02-21T08:51:16;31.63;;;22.63;;
57395;SDS011;43222;52.912;6.940;2024-02-21T08:53:43;34.95;;;21.88;;
57395;SDS011;43222;52.912;6.940;2024-02-21T08:56:09;35.00;;;23.33;;
57395;SDS011;43222;52.912;6.940;2024-02-21T08:58:35;34.50;;;21.23;;
57395;SDS011;43222;52.912;6.940;2024-02-21T09:01:02;40.20;;;22.98;;
57395;SDS011;43222;52.912;6.940;2024-02-21T09:03:35;34.50;;;21.52;;
57395;SDS011;43222;52.912;6.940;2024-02-21T09:06:02;33.53;;;22.15;;
57395;SDS011;43222;52.912;6.940;2024-02-21T09:08:28;34.63;;;22.33;;
57395;SDS011;43222;52.912;6.940;2024-02-21T09:10:54;32.70;;;21.83;;
57395;SDS011;43222;52.912;6.940;2024-02-21T09:13:20;32.63;;;21.45;;
57395;SDS011;43222;52.912;6.940;2024-02-21T09:15:49;33.22;;;22.85;;
57395;SDS011;43222;52.912;6.940;2024-02-21T09:18:15;30.88;;;22.40;;
57395;SDS011;43222;52.912;6.940;2024-02-21T09:20:45;31.52;;;21.00;;
57395;SDS011;43222;52.912;6.940;2024-02-21T09:23:12;32.60;;;21.02;;
57395;SDS011;43222;52.912;6.940;2024-02-21T09:25:38;35.85;;;21.65;;
57395;SDS011;43222;52.912;6.940;2024-02-21T09:28:05;31.77;;;21.38;;
57395;SDS011;43222;52.912;6.940;2024-02-21T09:30:31;30.05;;;21.73;;
57395;SDS011;43222;52.912;6.940;2024-02-21T09:32:57;34.55;;;21.25;;
57395;SDS011;43222;52.912;6.940;2024-02-21T09:35:27;34.90;;;21.95;;
57395;SDS011;43222;52.912;6.940;2024-02-21T09:37:54;35.80;;;22.40;;
57395;SDS011;43222;52.912;6.940;2024-02-21T09:40:20;35.55;;;21.17;;
57395;SDS011;43222;52.912;6.940;2024-02-21T09:42:47;30.98;;;20.67;;
57395;SDS011;43222;52.912;6.940;2024-02-21T09:47:56;33.38;;;21.45;;
57395;SDS011;43222;52.912;6.940;2024-02-21T09:50:25;34.03;;;20.42;;
57395;SDS011;43222;52.912;6.940;2024-02-21T09:52:52;32.97;;;20.65;;
57395;SDS011;43222;52.912;6.940;2024-02-21T09:55:20;38.97;;;21.42;;
57395;SDS011;43222;52.912;6.940;2024-02-21T09:57:46;32.35;;;20.50;;
57395;SDS011;43222;52.912;6.940;2024-02-21T10:00:12;53.55;;;21.45;;
57395;SDS011;43222;52.912;6.940;2024-02-21T10:02:46;39.58;;;21.02;;
57395;SDS011;43222;52.912;6.940;2024-02-21T10:05:12;38.10;;;20.10;;
57395;SDS011;43222;52.912;6.940;2024-02-21T10:07:38;53.38;;;20.23;;
57395;SDS011;43222;52.912;6.940;2024-02-21T10:10:05;40.35;;;19.30;;
57395;SDS011;43222;52.912;6.940;2024-02-21T10:12:31;38.58;;;18.65;;
57395;SDS011;43222;52.912;6.940;2024-02-21T10:15:04;50.55;;;19.33;;
57395;SDS011;43222;52.912;6.940;2024-02-21T10:17:33;44.38;;;17.60;;
57395;SDS011;43222;52.912;6.940;2024-02-21T10:20:06;48.83;;;17.55;;
57395;SDS011;43222;52.912;6.940;2024-02-21T10:22:33;37.53;;;17.35;;
57395;SDS011;43222;52.912;6.940;2024-02-21T10:25:13;29.92;;;16.75;;
57395;SDS011;43222;52.912;6.940;2024-02-21T10:27:40;39.45;;;16.55;;
57395;SDS011;43222;52.912;6.940;2024-02-21T10:30:15;29.08;;;15.77;;
57395;SDS011;43222;52.912;6.940;2024-02-21T10:32:48;27.45;;;15.18;;
57395;SDS011;43222;52.912;6.940;2024-02-21T10:35:15;34.75;;;16.52;;
57395;SDS011;43222;52.912;6.940;2024-02-21T10:37:51;32.30;;;15.60;;
57395;SDS011;43222;52.912;6.940;2024-02-21T10:40:20;34.00;;;15.93;;
57395;SDS011;43222;52.912;6.940;2024-02-21T10:42:46;31.92;;;15.50;;
57395;SDS011;43222;52.912;6.940;2024-02-21T10:45:14;30.77;;;14.88;;
57395;SDS011;43222;52.912;6.940;2024-02-21T10:47:40;36.17;;;14.95;;
57395;SDS011;43222;52.912;6.940;2024-02-21T10:50:09;29.88;;;14.57;;
57395;SDS011;43222;52.912;6.940;2024-02-21T10:55:26;33.35;;;14.82;;
57395;SDS011;43222;52.912;6.940;2024-02-21T10:57:54;32.63;;;14.55;;
57395;SDS011;43222;52.912;6.940;2024-02-21T11:00:21;25.10;;;14.23;;
57395;SDS011;43222;52.912;6.940;2024-02-21T11:02:52;25.45;;;13.45;;
57395;SDS011;43222;52.912;6.940;2024-02-21T11:05:18;29.77;;;13.77;;
57395;SDS011;43222;52.912;6.940;2024-02-21T11:07:44;26.05;;;13.40;;
57395;SDS011;43222;52.912;6.940;2024-02-21T11:10:23;23.10;;;12.65;;
57395;SDS011;43222;52.912;6.940;2024-02-21T11:12:52;25.05;;;12.88;;
57395;SDS011;43222;52.912;6.940;2024-02-21T11:15:19;21.23;;;13.13;;
57395;SDS011;43222;52.912;6.940;2024-02-21T11:17:53;24.83;;;12.65;;
57395;SDS011;43222;52.912;6.940;2024-02-21T11:20:20;25.98;;;12.52;;
57395;SDS011;43222;52.912;6.940;2024-02-21T11:22:46;22.00;;;12.52;;
57395;SDS011;43222;52.912;6.940;2024-02-21T11:25:21;21.83;;;11.10;;
57395;SDS011;43222;52.912;6.940;2024-02-21T11:27:47;24.42;;;12.10;;
57395;SDS011;43222;52.912;6.940;2024-02-21T11:30:13;24.20;;;12.13;;
57395;SDS011;43222;52.912;6.940;2024-02-21T11:32:41;21.27;;;11.55;;
57395;SDS011;43222;52.912;6.940;2024-02-21T11:35:07;24.02;;;11.18;;
57395;SDS011;43222;52.912;6.940;2024-02-21T11:37:34;17.92;;;10.52;;
57395;SDS011;43222;52.912;6.940;2024-02-21T11:40:04;17.70;;;11.17;;
57395;SDS011;43222;52.912;6.940;2024-02-21T11:42:35;21.80;;;11.05;;
57395;SDS011;43222;52.912;6.940;2024-02-21T11:45:01;18.75;;;11.82;;
57395;SDS011;43222;52.912;6.940;2024-02-21T11:47:30;19.77;;;11.40;;
57395;SDS011;43222;52.912;6.940;2024-02-21T11:49:56;22.33;;;10.88;;
57395;SDS011;43222;52.912;6.940;2024-02-21T11:52:23;20.38;;;10.68;;
57395;SDS011;43222;52.912;6.940;2024-02-21T11:54:53;17.60;;;11.20;;
57395;SDS011;43222;52.912;6.940;2024-02-21T11:57:19;18.40;;;11.25;;
57395;SDS011;43222;52.912;6.940;2024-02-21T11:59:46;22.00;;;11.20;;
57395;SDS011;43222;52.912;6.940;2024-02-21T12:02:12;17.60;;;10.55;;
57395;SDS011;43222;52.912;6.940;2024-02-21T12:04:38;16.08;;;9.50;;
57395;SDS011;43222;52.912;6.940;2024-02-21T12:07:04;15.48;;;9.27;;
57395;SDS011;43222;52.912;6.940;2024-02-21T12:09:31;17.70;;;9.50;;
57395;SDS011;43222;52.912;6.940;2024-02-21T12:12:06;16.65;;;9.20;;
57395;SDS011;43222;52.912;6.940;2024-02-21T12:14:35;19.02;;;9.10;;
57395;SDS011;43222;52.912;6.940;2024-02-21T12:17:01;16.75;;;9.38;;
57395;SDS011;43222;52.912;6.940;2024-02-21T12:19:32;18.38;;;9.32;;
57395;SDS011;43222;52.912;6.940;2024-02-21T12:21:59;18.02;;;9.43;;
57395;SDS011;43222;52.912;6.940;2024-02-21T12:24:26;21.45;;;10.40;;
57395;SDS011;43222;52.912;6.940;2024-02-21T12:26:52;19.75;;;9.57;;
57395;SDS011;43222;52.912;6.940;2024-02-21T12:29:19;15.57;;;9.40;;
57395;SDS011;43222;52.912;6.940;2024-02-21T12:31:45;17.20;;;9.32;;
57395;SDS011;43222;52.912;6.940;2024-02-21T12:34:11;15.75;;;9.23;;
57395;SDS011;43222;52.912;6.940;2024-02-21T12:36:41;13.80;;;8.73;;
57395;SDS011;43222;52.912;6.940;2024-02-21T12:39:13;20.00;;;9.02;;
57395;SDS011;43222;52.912;6.940;2024-02-21T12:41:39;17.05;;;8.90;;
57395;SDS011;43222;52.912;6.940;2024-02-21T12:44:08;15.68;;;8.77;;
57395;SDS011;43222;52.912;6.940;2024-02-21T12:46:36;18.48;;;8.40;;
57395;SDS011;43222;52.912;6.940;2024-02-21T12:49:02;13.52;;;7.93;;
57395;SDS011;43222;52.912;6.940;2024-02-21T12:51:29;13.40;;;7.85;;
57395;SDS011;43222;52.912;6.940;2024-02-21T12:53:55;11.40;;;6.75;;
57395;SDS011;43222;52.912;6.940;2024-02-21T12:56:22;10.82;;;6.80;;
57395;SDS011;43222;52.912;6.940;2024-02-21T12:58:50;11.20;;;6.68;;
57395;SDS011;43222;52.912;6.940;2024-02-21T13:01:16;12.88;;;6.65;;
57395;SDS011;43222;52.912;6.940;2024-02-21T13:03:42;11.23;;;6.00;;
57395;SDS011;43222;52.912;6.940;2024-02-21T13:06:08;11.07;;;6.05;;
57395;SDS011;43222;52.912;6.940;2024-02-21T13:08:38;11.40;;;5.95;;
57395;SDS011;43222;52.912;6.940;2024-02-21T13:11:04;11.70;;;5.78;;
57395;SDS011;43222;52.912;6.940;2024-02-21T13:13:31;9.10;;;4.97;;
57395;SDS011;43222;52.912;6.940;2024-02-21T13:15:57;10.25;;;5.32;;
57395;SDS011;43222;52.912;6.940;2024-02-21T13:18:23;9.65;;;4.78;;
57395;SDS011;43222;52.912;6.940;2024-02-21T13:20:49;8.90;;;4.63;;
57395;SDS011;43222;52.912;6.940;2024-02-21T13:23:15;9.32;;;5.10;;
57395;SDS011;43222;52.912;6.940;2024-02-21T13:25:42;11.70;;;5.07;;
57395;SDS011;43222;52.912;6.940;2024-02-21T13:28:09;9.43;;;5.22;;
57395;SDS011;43222;52.912;6.940;2024-02-21T13:30:35;10.43;;;5.07;;
57395;SDS011;43222;52.912;6.940;2024-02-21T13:33:01;10.35;;;5.10;;
57395;SDS011;43222;52.912;6.940;2024-02-21T13:35:28;12.45;;;5.82;;
57395;SDS011;43222;52.912;6.940;2024-02-21T13:37:54;13.55;;;5.30;;
57395;SDS011;43222;52.912;6.940;2024-02-21T13:40:20;12.60;;;5.32;;
57395;SDS011;43222;52.912;6.940;2024-02-21T13:42:46;9.85;;;6.07;;
57395;SDS011;43222;52.912;6.940;2024-02-21T13:45:14;11.18;;;5.57;;
57395;SDS011;43222;52.912;6.940;2024-02-21T13:47:40;10.27;;;5.95;;
57395;SDS011;43222;52.912;6.940;2024-02-21T13:50:06;13.55;;;6.03;;
57395;SDS011;43222;52.912;6.940;2024-02-21T13:52:37;13.38;;;6.13;;
57395;SDS011;43222;52.912;6.940;2024-02-21T13:55:03;10.32;;;6.18;;
57395;SDS011;43222;52.912;6.940;2024-02-21T13:57:29;11.52;;;5.90;;
57395;SDS011;43222;52.912;6.940;2024-02-21T13:59:55;15.07;;;6.43;;
57395;SDS011;43222;52.912;6.940;2024-02-21T14:02:21;9.73;;;5.55;;
57395;SDS011;43222;52.912;6.940;2024-02-21T14:04:47;13.85;;;6.07;;
57395;SDS011;43222;52.912;6.940;2024-02-21T14:07:13;12.35;;;6.10;;
57395;SDS011;43222;52.912;6.940;2024-02-21T14:09:39;11.73;;;6.18;;
57395;SDS011;43222;52.912;6.940;2024-02-21T14:12:06;14.25;;;6.53;;
57395;SDS011;43222;52.912;6.940;2024-02-21T14:14:35;13.55;;;7.18;;
57395;SDS011;43222;52.912;6.940;2024-02-21T14:17:02;14.30;;;6.68;;
57395;SDS011;43222;52.912;6.940;2024-02-21T14:19:28;14.80;;;7.00;;
57395;SDS011;43222;52.912;6.940;2024-02-21T14:21:54;16.17;;;7.47;;
57395;SDS011;43222;52.912;6.940;2024-02-21T14:24:21;13.35;;;6.82;;
57395;SDS011;43222;52.912;6.940;2024-02-21T14:26:48;13.00;;;6.53;;
57395;SDS011;43222;52.912;6.940;2024-02-21T14:29:14;14.77;;;6.47;;